Time;durP1;ratioP1;P1;durP2;ratioP2;P2;SDS_P1;SDS_P2;PMS_P1;PMS_P2;Temp;Humidity;BMP_temperature;BMP_pressure;BME280_temperature;BME280_humidity;BME280_pressure;Samples;Min_cycle;Max_cycle;Signal;HPM_P1;HPM_P2
2024/01/30 00:02:18;;;;;;;0.00;0.00;;;11.00;99.90;;;;;;5006808;28;20025;-76
2024/01/30 00:04:44;;;;;;;0.25;0.25;;;11.20;99.90;;;;;;5004556;28;20153;-76
2024/01/30 00:07:10;;;;;;;1.30;1.20;;;11.10;99.90;;;;;;5009573;28;20033;-76
2024/01/30 00:09:35;;;;;;;0.08;0.08;;;11.10;99.90;;;;;;5008076;28;20026;-76
2024/01/30 00:12:01;;;;;;;0.63;0.63;;;11.00;99.90;;;;;;5001471;28;20133;-77
2024/01/30 00:14:27;;;;;;;0.40;0.40;;;11.00;99.90;;;;;;5012385;28;20046;-76
2024/01/30 00:16:53;;;;;;;7.28;2.05;;;10.90;99.90;;;;;;4998590;28;20026;-77
2024/01/30 00:19:19;;;;;;;5.57;2.10;;;11.00;99.90;;;;;;4977404;28;20560;-77
2024/01/30 00:21:45;;;;;;;4.90;0.77;;;11.00;99.90;;;;;;4997179;28;20116;-75
2024/01/30 00:24:11;;;;;;;0.03;0.03;;;11.10;99.90;;;;;;5012271;28;20033;-76
2024/01/30 00:26:36;;;;;;;0.45;0.45;;;11.00;99.90;;;;;;5009164;28;20014;-77
2024/01/30 00:29:02;;;;;;;0.47;0.28;;;11.00;99.90;;;;;;5010062;28;20033;-77
2024/01/30 00:31:29;;;;;;;2.05;1.15;;;11.00;99.90;;;;;;4991834;28;20037;-77
2024/01/30 00:33:55;;;;;;;2.08;1.52;;;11.10;99.90;;;;;;5006592;28;20053;-76
2024/01/30 00:36:21;;;;;;;0.38;0.38;;;11.10;99.90;;;;;;5011124;28;20104;-77
2024/01/30 00:38:47;;;;;;;0.08;0.08;;;11.10;99.90;;;;;;5008273;28;20058;-77
2024/01/30 00:41:14;;;;;;;1.73;1.63;;;11.10;99.90;;;;;;5008325;28;20438;-76
2024/01/30 00:43:40;;;;;;;0.03;0.03;;;11.00;99.90;;;;;;5008876;28;20034;-76
2024/01/30 00:46:06;;;;;;;0.82;0.63;;;11.00;99.90;;;;;;4999626;28;20026;-76
2024/01/30 00:48:31;;;;;;;1.15;0.98;;;11.00;99.90;;;;;;5003497;28;20066;-76
2024/01/30 00:50:57;;;;;;;3.83;1.75;;;11.00;99.90;;;;;;4994987;28;20038;-76
2024/01/30 00:53:23;;;;;;;3.97;2.13;;;11.10;99.90;;;;;;5012875;28;20022;-76
2024/01/30 00:55:49;;;;;;;0.20;0.20;;;11.10;99.90;;;;;;5008731;28;20034;-76
2024/01/30 00:58:16;;;;;;;1.35;1.27;;;11.20;99.90;;;;;;5024748;28;20117;-77
2024/01/30 01:00:41;;;;;;;0.35;0.35;;;11.10;99.90;;;;;;5006767;28;20121;-76
2024/01/30 01:03:07;;;;;;;0.25;0.25;;;11.10;99.90;;;;;;5005377;28;20092;-77
2024/01/30 01:05:33;;;;;;;0.82;0.80;;;11.10;99.90;;;;;;5003865;28;20026;-77
2024/01/30 01:07:59;;;;;;;1.77;1.65;;;11.30;99.90;;;;;;5008248;28;20022;-76
2024/01/30 01:10:25;;;;;;;2.72;1.52;;;11.30;99.90;;;;;;5001018;28;20050;-77
2024/01/30 01:12:50;;;;;;;1.65;1.00;;;11.20;99.90;;;;;;4997255;28;20057;-77
2024/01/30 01:15:16;;;;;;;3.30;1.45;;;11.30;99.90;;;;;;4998714;28;20026;-76
2024/01/30 01:17:42;;;;;;;1.60;1.50;;;11.30;99.90;;;;;;4995109;28;20019;-77
2024/01/30 01:20:10;;;;;;;2.50;1.27;;;11.10;99.90;;;;;;4993255;28;20488;-76
2024/01/30 01:22:38;;;;;;;3.70;1.60;;;11.20;99.90;;;;;;5001962;28;20541;-77
2024/01/30 01:25:07;;;;;;;0.40;0.40;;;11.20;99.90;;;;;;5010001;28;20022;-76
2024/01/30 01:27:34;;;;;;;0.55;0.55;;;11.10;99.90;;;;;;5010361;28;20175;-77
2024/01/30 01:30:00;;;;;;;0.20;0.20;;;11.10;99.90;;;;;;5005843;28;20121;-77
2024/01/30 01:32:26;;;;;;;1.75;1.17;;;11.20;99.90;;;;;;5004867;28;20045;-76
2024/01/30 01:34:52;;;;;;;1.48;1.00;;;11.10;99.90;;;;;;5010180;28;20029;-76
2024/01/30 01:37:18;;;;;;;0.63;0.63;;;11.00;99.90;;;;;;5008994;28;20023;-77
2024/01/30 01:39:43;;;;;;;0.20;0.20;;;11.00;99.90;;;;;;5012419;28;20129;-76
2024/01/30 01:42:09;;;;;;;1.23;1.13;;;10.80;99.90;;;;;;5005346;28;20031;-77
2024/01/30 01:44:35;;;;;;;0.30;0.30;;;10.80;99.90;;;;;;5004672;28;20109;-77
2024/01/30 01:47:01;;;;;;;5.78;2.10;;;10.90;99.90;;;;;;5009984;28;20042;-77
2024/01/30 01:49:28;;;;;;;7.28;1.58;;;11.00;99.90;;;;;;4997771;28;20022;-77
2024/01/30 01:51:56;;;;;;;1.35;1.20;;;11.00;99.90;;;;;;4995979;28;20030;-77
2024/01/30 01:54:23;;;;;;;0.43;0.43;;;11.00;99.90;;;;;;5009803;28;20475;-77
2024/01/30 01:56:51;;;;;;;1.90;1.17;;;11.00;99.90;;;;;;5013525;28;20387;-77
2024/01/30 01:59:18;;;;;;;1.45;1.35;;;11.00;99.90;;;;;;5012658;28;20442;-76
2024/01/30 02:01:45;;;;;;;0.30;0.30;;;11.00;99.90;;;;;;5011869;28;20030;-77
2024/01/30 02:04:11;;;;;;;0.30;0.30;;;10.90;99.90;;;;;;5015156;28;20025;-76
2024/01/30 02:06:38;;;;;;;0.20;0.20;;;11.10;99.90;;;;;;5014466;28;20466;-77
2024/01/30 02:09:04;;;;;;;1.77;1.50;;;10.90;99.90;;;;;;5012130;28;20038;-77
2024/01/30 02:11:31;;;;;;;0.57;0.57;;;11.00;99.90;;;;;;4996985;28;20091;-76
2024/01/30 02:13:57;;;;;;;0.10;0.10;;;11.00;99.90;;;;;;5014031;28;20021;-77
2024/01/30 02:16:23;;;;;;;0.43;0.43;;;11.00;99.90;;;;;;5012414;28;20045;-76
2024/01/30 02:18:49;;;;;;;0.80;0.80;;;11.00;99.90;;;;;;5009716;28;20475;-76
2024/01/30 02:21:19;;;;;;;0.28;0.22;;;10.90;99.90;;;;;;5014498;28;20030;-76
2024/01/30 02:23:47;;;;;;;2.30;1.92;;;11.00;99.90;;;;;;5012153;28;20117;-77
2024/01/30 02:26:13;;;;;;;0.30;0.30;;;11.00;99.90;;;;;;5012627;28;20029;-77
2024/01/30 02:28:38;;;;;;;0.32;0.32;;;11.00;99.90;;;;;;5010709;28;20379;-76
2024/01/30 02:31:05;;;;;;;1.20;1.10;;;10.90;99.90;;;;;;5013753;28;20410;-77
2024/01/30 02:33:31;;;;;;;0.10;0.10;;;10.90;99.90;;;;;;5003956;28;20096;-77
2024/01/30 02:35:57;;;;;;;0.40;0.40;;;11.00;99.90;;;;;;5002059;28;20023;-77
2024/01/30 02:38:23;;;;;;;0.20;0.20;;;11.00;99.90;;;;;;5012174;28;20068;-77
2024/01/30 02:40:49;;;;;;;2.55;2.35;;;11.00;99.90;;;;;;5010938;28;20041;-77
2024/01/30 02:43:16;;;;;;;0.03;0.03;;;11.00;99.90;;;;;;5011913;28;20026;-76
2024/01/30 02:45:42;;;;;;;0.82;0.80;;;11.10;99.90;;;;;;5000319;28;20034;-77
2024/01/30 02:48:08;;;;;;;1.17;1.05;;;11.00;99.90;;;;;;4997993;28;20022;-76
2024/01/30 02:50:33;;;;;;;0.10;0.10;;;11.00;99.90;;;;;;4995849;28;20880;-76
2024/01/30 02:52:59;;;;;;;0.45;0.45;;;11.00;99.90;;;;;;4999188;28;20470;-76
2024/01/30 02:55:25;;;;;;;4.35;1.75;;;11.10;99.90;;;;;;5013336;28;20521;-76
2024/01/30 02:57:51;;;;;;;1.55;1.15;;;11.00;99.90;;;;;;5009529;28;20149;-77
2024/01/30 03:00:19;;;;;;;0.40;0.40;;;10.90;99.90;;;;;;5010785;28;20025;-76
2024/01/30 03:02:45;;;;;;;0.60;0.45;;;10.90;99.90;;;;;;5005380;28;20038;-77
2024/01/30 03:05:11;;;;;;;1.25;0.85;;;11.10;99.90;;;;;;5009045;28;20084;-77
2024/01/30 03:07:37;;;;;;;0.13;0.13;;;11.20;99.90;;;;;;5009143;28;20559;-78
2024/01/30 03:10:05;;;;;;;0.28;0.28;;;11.10;99.90;;;;;;5005615;28;20533;-76
2024/01/30 03:12:30;;;;;;;0.15;0.15;;;11.20;99.90;;;;;;5013570;28;20042;-77
2024/01/30 03:14:56;;;;;;;0.75;0.57;;;11.20;99.90;;;;;;4995509;28;20097;-76
2024/01/30 03:17:25;;;;;;;1.52;1.42;;;11.20;99.90;;;;;;5011294;28;20060;-76
2024/01/30 03:19:51;;;;;;;1.20;0.90;;;11.40;99.90;;;;;;5006088;28;20026;-76
2024/01/30 03:22:17;;;;;;;0.93;0.73;;;11.50;99.90;;;;;;5008951;28;20033;-76
2024/01/30 03:24:43;;;;;;;0.45;0.45;;;11.30;99.90;;;;;;5009077;28;20046;-76
2024/01/30 03:27:09;;;;;;;0.13;0.13;;;11.30;99.90;;;;;;5005912;28;20513;-76
2024/01/30 03:29:35;;;;;;;0.20;0.20;;;11.30;99.90;;;;;;5000467;28;20031;-76
2024/01/30 03:32:01;;;;;;;6.05;1.38;;;11.30;99.90;;;;;;5001342;28;20045;-76
2024/01/30 03:34:27;;;;;;;0.10;0.10;;;11.20;99.90;;;;;;4998403;28;20022;-76
2024/01/30 03:36:53;;;;;;;0.35;0.35;;;11.30;99.90;;;;;;4996129;28;20089;-76
2024/01/30 03:39:19;;;;;;;3.83;1.55;;;11.30;99.90;;;;;;4996245;28;20779;-76
2024/01/30 03:41:45;;;;;;;3.15;1.13;;;11.30;99.90;;;;;;4995001;28;20022;-77
2024/01/30 03:44:11;;;;;;;4.70;2.75;;;11.20;99.90;;;;;;5011843;28;20474;-75
2024/01/30 03:46:37;;;;;;;0.00;0.00;;;11.20;99.90;;;;;;4999991;28;20097;-76
2024/01/30 03:49:03;;;;;;;0.50;0.50;;;11.30;99.90;;;;;;5001359;28;20180;-76
2024/01/30 03:51:29;;;;;;;0.32;0.32;;;11.30;99.90;;;;;;4997184;28;20035;-76
2024/01/30 03:53:54;;;;;;;0.08;0.08;;;11.20;99.90;;;;;;5008695;28;20032;-77
2024/01/30 03:56:20;;;;;;;1.33;1.15;;;11.10;99.90;;;;;;5008895;28;20505;-76
2024/01/30 03:58:46;;;;;;;1.15;0.98;;;11.10;99.90;;;;;;4993767;28;20109;-76
2024/01/30 04:01:15;;;;;;;0.00;0.00;;;11.20;99.90;;;;;;5010830;28;20033;-76
2024/01/30 04:03:42;;;;;;;2.00;1.40;;;11.20;99.90;;;;;;5010638;28;20041;-76
2024/01/30 04:06:08;;;;;;;12.20;0.80;;;11.20;99.90;;;;;;5007089;28;20026;-76
2024/01/30 04:08:34;;;;;;;0.15;0.15;;;11.30;99.90;;;;;;5007569;28;20018;-77
2024/01/30 04:11:06;;;;;;;0.10;0.10;;;11.40;99.90;;;;;;5008473;28;20504;-77
2024/01/30 04:13:35;;;;;;;1.27;0.95;;;11.40;99.90;;;;;;5004524;28;20411;-76
2024/01/30 04:16:02;;;;;;;0.13;0.10;;;11.40;99.90;;;;;;5003075;28;20084;-78
2024/01/30 04:18:28;;;;;;;0.25;0.25;;;11.40;99.90;;;;;;4996380;28;20053;-78
2024/01/30 04:20:55;;;;;;;0.90;0.55;;;11.40;99.90;;;;;;5008554;28;20045;-77
2024/01/30 04:23:21;;;;;;;0.30;0.30;;;11.40;99.90;;;;;;5001130;28;20110;-77
2024/01/30 04:25:47;;;;;;;3.67;1.88;;;11.60;99.90;;;;;;5009081;28;20030;-77
2024/01/30 04:28:12;;;;;;;7.15;1.52;;;11.40;99.90;;;;;;4997542;28;20028;-77
2024/01/30 04:30:39;;;;;;;3.92;1.98;;;11.40;99.90;;;;;;5002020;28;20483;-77
2024/01/30 04:33:05;;;;;;;0.10;0.10;;;11.40;99.90;;;;;;5011228;28;20018;-78
2024/01/30 04:35:31;;;;;;;0.95;0.60;;;11.30;99.90;;;;;;5012314;28;20069;-78
2024/01/30 04:37:57;;;;;;;1.58;1.02;;;11.30;99.90;;;;;;5012667;28;20387;-77
2024/01/30 04:40:23;;;;;;;0.10;0.10;;;11.30;99.90;;;;;;5012660;28;20034;-77
2024/01/30 04:42:48;;;;;;;0.77;0.40;;;11.50;99.90;;;;;;5013020;28;20014;-77
2024/01/30 04:45:14;;;;;;;1.88;1.10;;;11.50;99.90;;;;;;5012643;28;20029;-77
2024/01/30 04:47:40;;;;;;;0.70;0.70;;;11.40;99.90;;;;;;5012308;28;20102;-78
2024/01/30 04:50:08;;;;;;;0.77;0.77;;;11.30;99.90;;;;;;5012352;28;20430;-77
2024/01/30 04:52:34;;;;;;;0.10;0.10;;;11.30;99.90;;;;;;5012701;28;20160;-77
2024/01/30 04:55:00;;;;;;;0.20;0.20;;;11.30;99.90;;;;;;5012484;28;20026;-77
2024/01/30 04:57:26;;;;;;;0.40;0.40;;;11.40;99.90;;;;;;5005907;28;20526;-76
2024/01/30 04:59:52;;;;;;;6.22;0.88;;;11.50;99.90;;;;;;5012701;28;20379;-77
2024/01/30 05:02:17;;;;;;;1.50;1.40;;;11.50;99.90;;;;;;5011971;28;20387;-75
2024/01/30 05:04:43;;;;;;;2.47;0.57;;;11.60;99.90;;;;;;5012510;28;20049;-77
2024/01/30 05:07:09;;;;;;;1.65;1.55;;;11.40;99.90;;;;;;5012221;28;20378;-77
2024/01/30 05:09:35;;;;;;;1.00;0.90;;;11.30;99.90;;;;;;5011081;28;20033;-76
2024/01/30 05:12:01;;;;;;;1.70;1.60;;;11.30;99.90;;;;;;5011103;28;20056;-76
2024/01/30 05:14:26;;;;;;;2.22;1.40;;;11.30;99.90;;;;;;5011537;28;20057;-77
2024/01/30 05:16:52;;;;;;;5.78;1.67;;;11.30;99.90;;;;;;5011983;28;20105;-77
2024/01/30 05:19:18;;;;;;;1.08;0.68;;;11.30;99.90;;;;;;5012177;28;20466;-76
2024/01/30 05:21:44;;;;;;;0.57;0.57;;;11.30;99.90;;;;;;5010894;28;20048;-77
2024/01/30 05:24:10;;;;;;;6.93;2.90;;;11.30;99.90;;;;;;5015504;28;20030;-77
2024/01/30 05:26:36;;;;;;;0.45;0.45;;;11.20;99.90;;;;;;5015397;28;20032;-76
2024/01/30 05:29:02;;;;;;;1.25;0.57;;;11.30;99.90;;;;;;5015600;28;20033;-77
2024/01/30 05:31:28;;;;;;;0.75;0.75;;;11.20;99.90;;;;;;5014885;28;20133;-77
2024/01/30 05:33:54;;;;;;;3.10;0.68;;;11.20;99.90;;;;;;5015336;28;20021;-76
2024/01/30 05:36:21;;;;;;;0.30;0.30;;;11.30;99.90;;;;;;5015512;28;20029;-76
2024/01/30 05:38:47;;;;;;;4.43;2.08;;;11.30;99.90;;;;;;5015245;28;20033;-77
2024/01/30 05:41:13;;;;;;;2.65;0.50;;;11.30;99.90;;;;;;5013949;28;20033;-77
2024/01/30 05:43:39;;;;;;;0.60;0.57;;;11.40;99.90;;;;;;5015404;28;20033;-77
2024/01/30 05:46:06;;;;;;;1.23;1.13;;;11.30;99.90;;;;;;5013456;28;20414;-77
2024/01/30 05:48:31;;;;;;;1.23;1.02;;;11.30;99.90;;;;;;5015372;28;20025;-77
2024/01/30 05:50:59;;;;;;;0.22;0.22;;;11.30;99.90;;;;;;5015031;28;20034;-76
2024/01/30 05:53:25;;;;;;;0.98;0.57;;;11.30;99.90;;;;;;5015152;28;20192;-76
2024/01/30 05:55:51;;;;;;;0.52;0.40;;;11.40;99.90;;;;;;5013564;28;20453;-76
2024/01/30 05:58:17;;;;;;;2.42;1.70;;;11.40;99.90;;;;;;5013828;28;20119;-74
2024/01/30 06:00:43;;;;;;;1.85;1.20;;;11.40;99.90;;;;;;5012861;28;20101;-76
2024/01/30 06:03:08;;;;;;;1.73;1.20;;;11.40;99.90;;;;;;5015056;28;20367;-76
2024/01/30 06:05:34;;;;;;;0.73;0.73;;;11.40;99.90;;;;;;5014490;28;20032;-77
2024/01/30 06:08:00;;;;;;;2.05;1.85;;;11.50;99.90;;;;;;5013479;28;20394;-77
2024/01/30 06:10:26;;;;;;;1.88;0.80;;;11.40;99.90;;;;;;5013484;28;20073;-76
2024/01/30 06:12:52;;;;;;;0.70;0.70;;;11.20;99.90;;;;;;5013600;28;20026;-77
2024/01/30 06:15:17;;;;;;;3.47;1.65;;;11.20;99.90;;;;;;5014298;28;20410;-76
2024/01/30 06:17:43;;;;;;;22.38;2.90;;;11.30;99.90;;;;;;5014720;28;20390;-76
2024/01/30 06:20:10;;;;;;;2.05;1.77;;;11.30;99.90;;;;;;5015175;28;20425;-77
2024/01/30 06:22:36;;;;;;;0.20;0.20;;;11.40;99.90;;;;;;5015398;28;20029;-77
2024/01/30 06:25:02;;;;;;;7.80;1.45;;;11.40;99.90;;;;;;5013635;28;20080;-77
2024/01/30 06:27:27;;;;;;;2.17;1.20;;;11.50;99.90;;;;;;5015025;28;20387;-76
2024/01/30 06:29:54;;;;;;;1.92;1.73;;;11.50;99.90;;;;;;5014771;28;20026;-77
2024/01/30 06:32:20;;;;;;;6.72;2.47;;;11.40;99.90;;;;;;5015061;28;20029;-77
2024/01/30 06:34:46;;;;;;;4.75;1.52;;;11.40;99.90;;;;;;5014074;28;20386;-77
2024/01/30 06:37:12;;;;;;;0.08;0.08;;;11.50;99.90;;;;;;5014694;28;20018;-77
2024/01/30 06:39:37;;;;;;;0.40;0.40;;;11.60;99.90;;;;;;5015046;28;20493;-77
2024/01/30 06:42:04;;;;;;;2.15;1.35;;;11.70;99.90;;;;;;5014918;28;20037;-77
2024/01/30 06:44:29;;;;;;;1.50;1.42;;;11.70;99.90;;;;;;5014542;28;20036;-77
2024/01/30 06:46:55;;;;;;;7.35;1.83;;;11.60;99.90;;;;;;5013722;28;20087;-77
2024/01/30 06:49:22;;;;;;;0.13;0.13;;;11.50;99.90;;;;;;5014524;28;20021;-77
2024/01/30 06:51:48;;;;;;;0.10;0.10;;;11.60;99.90;;;;;;5014717;28;20125;-77
2024/01/30 06:54:13;;;;;;;3.65;1.90;;;11.50;99.90;;;;;;5012892;28;20042;-77
2024/01/30 06:56:39;;;;;;;0.40;0.40;;;11.40;99.90;;;;;;5007021;28;20389;-77
2024/01/30 06:59:06;;;;;;;7.07;1.60;;;11.50;99.90;;;;;;5005678;28;20026;-77
2024/01/30 07:01:32;;;;;;;1.25;0.95;;;11.50;99.90;;;;;;5011382;28;20010;-77
2024/01/30 07:03:58;;;;;;;1.33;1.17;;;11.40;99.90;;;;;;5008511;28;20038;-77
2024/01/30 07:06:24;;;;;;;2.40;1.55;;;11.40;99.90;;;;;;5010259;28;20076;-74
2024/01/30 07:08:50;;;;;;;1.88;1.48;;;11.40;99.90;;;;;;5008968;28;20430;-78
2024/01/30 07:11:23;;;;;;;1.90;1.52;;;11.50;99.90;;;;;;5009941;28;20084;-77
2024/01/30 07:13:51;;;;;;;4.00;3.28;;;11.60;99.90;;;;;;5004531;28;20132;-76
2024/01/30 07:16:17;;;;;;;2.90;1.55;;;11.50;99.90;;;;;;5009284;28;20049;-77
2024/01/30 07:18:43;;;;;;;3.92;2.22;;;11.60;99.90;;;;;;5008437;28;20423;-76
2024/01/30 07:21:10;;;;;;;4.95;3.13;;;11.50;99.90;;;;;;5009686;28;20026;-77
2024/01/30 07:23:38;;;;;;;1.17;0.95;;;11.50;99.90;;;;;;5010085;28;20025;-77
2024/01/30 07:26:11;;;;;;;2.80;2.10;;;11.60;99.90;;;;;;5009570;28;20482;-77
2024/01/30 07:28:37;;;;;;;3.53;2.13;;;11.60;99.90;;;;;;5009366;28;20025;-78
2024/01/30 07:31:03;;;;;;;0.10;0.10;;;11.60;99.90;;;;;;5009935;28;20117;-76
2024/01/30 07:33:29;;;;;;;4.07;2.30;;;11.50;99.90;;;;;;5009804;28;20116;-77
2024/01/30 07:35:54;;;;;;;0.93;0.75;;;11.50;99.90;;;;;;5009524;28;20176;-75
2024/01/30 07:38:21;;;;;;;1.98;1.88;;;11.60;99.90;;;;;;5008928;28;20109;-76
2024/01/30 07:40:46;;;;;;;2.78;1.98;;;11.50;99.90;;;;;;5008695;28;20022;-76
2024/01/30 07:43:12;;;;;;;5.63;2.22;;;11.60;99.90;;;;;;5008142;28;20028;-75
2024/01/30 07:45:39;;;;;;;0.70;0.70;;;11.60;99.90;;;;;;5009419;28;20309;-77
2024/01/30 07:48:08;;;;;;;5.57;2.03;;;11.40;99.90;;;;;;5009183;28;20029;-76
2024/01/30 07:50:34;;;;;;;1.40;1.23;;;11.40;99.90;;;;;;5008952;28;20116;-76
2024/01/30 07:53:00;;;;;;;0.90;0.63;;;11.40;99.90;;;;;;5008370;28;20057;-76
2024/01/30 07:55:30;;;;;;;2.45;1.35;;;11.40;99.90;;;;;;5008984;28;20109;-77
2024/01/30 07:57:56;;;;;;;1.67;1.58;;;11.50;99.90;;;;;;5004576;28;20390;-74
2024/01/30 08:00:22;;;;;;;3.03;1.55;;;11.50;99.90;;;;;;5009794;28;20128;-76
2024/01/30 08:02:48;;;;;;;1.08;0.77;;;11.50;99.90;;;;;;5009034;28;20022;-77
2024/01/30 08:05:15;;;;;;;0.20;0.20;;;11.60;99.90;;;;;;5009303;28;20391;-76
2024/01/30 08:07:44;;;;;;;1.17;1.08;;;11.70;99.90;;;;;;4991421;28;20131;-77
2024/01/30 08:10:12;;;;;;;3.58;1.83;;;11.70;99.90;;;;;;5008729;28;20063;-75
2024/01/30 08:12:38;;;;;;;3.38;1.92;;;11.70;99.90;;;;;;5009433;28;20038;-76
2024/01/30 08:15:04;;;;;;;6.85;2.45;;;11.70;99.90;;;;;;5007339;28;20141;-74
2024/01/30 08:17:30;;;;;;;1.10;0.90;;;11.80;99.90;;;;;;5009065;28;20092;-76
2024/01/30 08:19:57;;;;;;;0.30;0.30;;;11.80;99.90;;;;;;5009328;28;20049;-75
2024/01/30 08:22:23;;;;;;;0.73;0.73;;;11.90;99.90;;;;;;5008990;28;20440;-74
2024/01/30 08:24:48;;;;;;;3.22;1.75;;;11.90;99.90;;;;;;5008497;28;20347;-75
2024/01/30 08:27:14;;;;;;;3.53;1.35;;;11.80;99.90;;;;;;5009210;28;20605;-76
2024/01/30 08:29:40;;;;;;;0.47;0.45;;;11.80;99.90;;;;;;5008825;28;20026;-76
2024/01/30 08:32:06;;;;;;;6.18;2.08;;;11.90;99.90;;;;;;5007585;28;20080;-75
2024/01/30 08:34:32;;;;;;;0.25;0.25;;;12.00;99.90;;;;;;5007887;28;20022;-77
2024/01/30 08:36:58;;;;;;;6.72;3.33;;;11.90;99.90;;;;;;5008532;28;20032;-77
2024/01/30 08:39:25;;;;;;;0.68;0.68;;;11.80;99.90;;;;;;5007931;28;20105;-77
2024/01/30 08:41:51;;;;;;;0.30;0.30;;;11.80;99.90;;;;;;5007406;28;20045;-77
2024/01/30 08:44:17;;;;;;;7.25;1.52;;;11.90;99.90;;;;;;5008614;28;20562;-74
2024/01/30 08:46:46;;;;;;;1.38;1.17;;;11.90;99.90;;;;;;5009320;28;20034;-75
2024/01/30 08:49:13;;;;;;;7.28;2.55;;;12.10;99.90;;;;;;5008317;28;20025;-73
2024/01/30 08:51:39;;;;;;;0.20;0.20;;;12.00;99.90;;;;;;5006969;28;20175;-75
2024/01/30 08:54:05;;;;;;;3.70;2.33;;;11.90;99.90;;;;;;5007210;28;20018;-75
2024/01/30 08:56:31;;;;;;;5.90;3.13;;;11.90;99.90;;;;;;5008537;28;20423;-75
2024/01/30 08:58:57;;;;;;;3.00;2.33;;;11.80;99.90;;;;;;5012696;28;20032;-74
2024/01/30 09:01:22;;;;;;;3.85;2.22;;;11.80;99.90;;;;;;5012644;28;20076;-75
2024/01/30 09:03:48;;;;;;;0.85;0.85;;;11.90;99.90;;;;;;5012579;28;20479;-75
2024/01/30 09:06:14;;;;;;;2.00;1.77;;;11.90;99.90;;;;;;5011551;28;20038;-75
2024/01/30 09:08:40;;;;;;;0.17;0.17;;;11.80;99.90;;;;;;5012257;28;20029;-75
2024/01/30 09:11:14;;;;;;;7.25;2.75;;;11.80;99.90;;;;;;5011730;28;20077;-76
2024/01/30 09:13:40;;;;;;;2.67;1.67;;;11.90;99.90;;;;;;5012257;28;20613;-75
2024/01/30 09:16:07;;;;;;;1.30;0.80;;;12.00;99.90;;;;;;5010858;28;20060;-76
2024/01/30 09:18:33;;;;;;;1.10;1.00;;;12.00;99.90;;;;;;5027157;28;20018;-74
2024/01/30 09:20:59;;;;;;;1.40;0.88;;;12.10;99.90;;;;;;5011823;28;20076;-74
2024/01/30 09:23:27;;;;;;;3.28;2.63;;;12.00;99.90;;;;;;5010691;28;20061;-75
2024/01/30 09:25:53;;;;;;;2.72;1.23;;;12.00;99.90;;;;;;5012137;28;20053;-75
2024/01/30 09:28:19;;;;;;;6.63;1.50;;;12.00;99.90;;;;;;5012139;28;20581;-75
2024/01/30 09:30:45;;;;;;;4.30;2.65;;;12.00;99.90;;;;;;5011057;28;20034;-75
2024/01/30 09:33:10;;;;;;;7.90;3.95;;;12.00;99.90;;;;;;5010464;28;20037;-74
2024/01/30 09:35:36;;;;;;;0.85;0.70;;;12.00;99.90;;;;;;5012516;28;20219;-75
2024/01/30 09:38:03;;;;;;;0.00;0.00;;;12.20;99.90;;;;;;5010312;28;20033;-76
2024/01/30 09:40:29;;;;;;;5.82;3.30;;;12.10;99.90;;;;;;5011968;28;20006;-74
2024/01/30 09:42:55;;;;;;;1.58;1.48;;;12.00;99.90;;;;;;5012246;28;20115;-74
2024/01/30 09:45:25;;;;;;;6.65;4.10;;;12.00;99.90;;;;;;5011592;28;20451;-74
2024/01/30 09:47:52;;;;;;;3.03;2.05;;;12.00;99.90;;;;;;5013185;28;20041;-75
2024/01/30 09:50:19;;;;;;;3.10;2.38;;;12.30;99.90;;;;;;5014354;28;20026;-75
2024/01/30 09:52:46;;;;;;;8.25;3.97;;;12.30;99.90;;;;;;5013317;28;20510;-75
2024/01/30 09:55:13;;;;;;;10.93;2.05;;;12.20;99.90;;;;;;5016313;28;20037;-74
2024/01/30 09:57:39;;;;;;;8.60;2.50;;;12.20;99.90;;;;;;5014503;28;20025;-74
2024/01/30 10:00:08;;;;;;;4.38;1.80;;;12.40;99.90;;;;;;5014994;28;20510;-75
2024/01/30 10:02:40;;;;;;;1.98;0.85;;;12.30;99.90;;;;;;5015546;28;20045;-75
2024/01/30 10:05:07;;;;;;;0.82;0.73;;;12.30;99.90;;;;;;5015406;28;20535;-75
2024/01/30 10:07:34;;;;;;;2.28;1.42;;;12.20;99.90;;;;;;5015057;28;20061;-74
2024/01/30 10:10:00;;;;;;;2.45;2.13;;;12.30;99.90;;;;;;5014106;28;20048;-75
2024/01/30 10:12:26;;;;;;;2.70;2.00;;;12.20;99.90;;;;;;5015361;28;20033;-75
2024/01/30 10:14:53;;;;;;;5.15;3.13;;;12.10;99.90;;;;;;5015543;28;20072;-75
2024/01/30 10:17:21;;;;;;;6.90;1.98;;;12.00;99.90;;;;;;5013992;28;20439;-75
2024/01/30 10:19:47;;;;;;;5.32;3.15;;;12.00;99.90;;;;;;5014076;28;20026;-75
2024/01/30 10:22:13;;;;;;;3.22;1.13;;;11.90;99.90;;;;;;5014955;28;20045;-75
2024/01/30 10:24:39;;;;;;;4.93;1.20;;;12.00;99.90;;;;;;5015275;28;20026;-75
2024/01/30 10:27:05;;;;;;;4.50;2.13;;;12.10;99.90;;;;;;5014982;28;20022;-75
2024/01/30 10:29:32;;;;;;;3.33;0.80;;;12.00;99.90;;;;;;5015137;28;20022;-75
2024/01/30 10:32:05;;;;;;;2.63;2.08;;;12.00;99.90;;;;;;5014852;28;20034;-75
2024/01/30 10:34:31;;;;;;;3.05;1.50;;;12.00;99.90;;;;;;5014919;28;20057;-74
2024/01/30 10:37:06;;;;;;;6.93;2.30;;;12.00;99.90;;;;;;5014774;28;20044;-77
2024/01/30 10:39:38;;;;;;;1.15;0.85;;;11.90;99.90;;;;;;5013498;28;20025;-75
2024/01/30 10:42:05;;;;;;;2.53;1.73;;;11.80;99.90;;;;;;5014983;28;20041;-76
2024/01/30 10:44:39;;;;;;;1.67;0.60;;;11.70;99.90;;;;;;5014794;28;20021;-75
2024/01/30 10:47:11;;;;;;;0.70;0.43;;;11.60;99.90;;;;;;5013513;28;20391;-77
2024/01/30 10:49:38;;;;;;;3.30;1.75;;;11.50;99.90;;;;;;5014559;28;20050;-76
2024/01/30 10:52:05;;;;;;;0.40;0.40;;;11.50;99.90;;;;;;5014451;28;20045;-76
2024/01/30 10:54:33;;;;;;;3.70;0.50;;;11.40;99.90;;;;;;5014530;28;20022;-77
2024/01/30 10:57:01;;;;;;;2.42;0.63;;;11.50;99.90;;;;;;5014697;28;20033;-77
2024/01/30 10:59:28;;;;;;;2.40;0.40;;;11.30;99.90;;;;;;5014234;28;20538;-77
2024/01/30 11:01:54;;;;;;;1.00;0.45;;;11.30;99.90;;;;;;5013229;28;20368;-78
2024/01/30 11:04:20;;;;;;;2.63;0.38;;;11.30;99.90;;;;;;5013386;28;20068;-77
2024/01/30 11:06:49;;;;;;;1.30;0.63;;;11.40;99.90;;;;;;5014371;28;20479;-78
2024/01/30 11:09:17;;;;;;;0.68;0.52;;;11.50;99.90;;;;;;5013850;28;20366;-77
2024/01/30 11:11:50;;;;;;;0.20;0.20;;;11.50;99.90;;;;;;5014207;28;20406;-77
2024/01/30 11:14:16;;;;;;;0.63;0.30;;;11.60;99.90;;;;;;5014150;28;20064;-77
2024/01/30 11:16:43;;;;;;;0.10;0.10;;;11.60;99.90;;;;;;5013095;28;20120;-78
2024/01/30 11:19:12;;;;;;;0.30;0.30;;;11.80;99.90;;;;;;5012360;28;20025;-79
2024/01/30 11:21:43;;;;;;;0.55;0.55;;;12.30;99.90;;;;;;5013817;28;20117;-78
2024/01/30 11:24:09;;;;;;;6.70;0.35;;;12.80;99.90;;;;;;5014181;28;20034;-79
2024/01/30 11:26:35;;;;;;;0.55;0.30;;;12.20;99.90;;;;;;5012823;28;20030;-77
2024/01/30 11:29:07;;;;;;;0.30;0.10;;;12.10;99.90;;;;;;5013982;28;20026;-79
2024/01/30 11:31:33;;;;;;;0.63;0.20;;;11.90;99.90;;;;;;5013838;28;20046;-79
2024/01/30 11:34:00;;;;;;;2.22;0.98;;;11.50;99.90;;;;;;5013532;28;20422;-78
2024/01/30 11:36:27;;;;;;;0.10;0.10;;;11.30;99.90;;;;;;5013798;28;20037;-76
2024/01/30 11:38:54;;;;;;;0.10;0.10;;;11.20;99.90;;;;;;5013616;28;20025;-78
2024/01/30 11:41:20;;;;;;;0.10;0.10;;;11.50;99.90;;;;;;5012560;28;20465;-79
2024/01/30 11:43:55;;;;;;;1.30;0.55;;;11.50;99.90;;;;;;5012272;28;20372;-78
2024/01/30 11:46:21;;;;;;;7.40;0.43;;;11.40;99.90;;;;;;5013652;28;20113;-78
2024/01/30 11:48:47;;;;;;;0.10;0.10;;;11.20;99.90;;;;;;5013042;28;20161;-79
2024/01/30 11:51:13;;;;;;;0.75;0.30;;;11.30;99.90;;;;;;5013423;28;20125;-78
2024/01/30 11:53:39;;;;;;;0.20;0.20;;;11.30;99.90;;;;;;5012585;28;20378;-79
2024/01/30 11:56:08;;;;;;;1.98;0.70;;;11.40;99.90;;;;;;5009263;28;20026;-77
2024/01/30 11:58:34;;;;;;;0.35;0.20;;;11.40;99.90;;;;;;5006669;28;20109;-79
2024/01/30 12:01:00;;;;;;;0.88;0.50;;;11.30;99.90;;;;;;5007001;28;20121;-78
2024/01/30 12:03:26;;;;;;;0.10;0.10;;;11.50;99.90;;;;;;5007985;28;20112;-78
2024/01/30 12:05:58;;;;;;;0.17;0.17;;;11.30;99.90;;;;;;5008887;28;20030;-79
2024/01/30 12:08:24;;;;;;;0.30;0.30;;;11.20;99.90;;;;;;5008687;28;20032;-78
2024/01/30 12:10:58;;;;;;;0.22;0.22;;;11.20;99.90;;;;;;5009362;28;20034;-78
2024/01/30 12:13:26;;;;;;;0.30;0.30;;;11.30;99.90;;;;;;5022476;28;20029;-78
2024/01/30 12:15:52;;;;;;;0.08;0.08;;;11.30;99.90;;;;;;5009549;28;20117;-79
2024/01/30 12:18:21;;;;;;;4.43;0.50;;;11.40;99.90;;;;;;5008528;28;20663;-78
2024/01/30 12:20:58;;;;;;;0.20;0.20;;;11.40;99.90;;;;;;5012704;28;20480;-76
2024/01/30 12:23:25;;;;;;;0.20;0.10;;;11.40;99.90;;;;;;5012726;28;20368;-79
2024/01/30 12:25:52;;;;;;;0.45;0.20;;;11.40;99.90;;;;;;5012343;28;20169;-77
2024/01/30 12:28:19;;;;;;;5.05;0.20;;;11.50;99.90;;;;;;5012685;28;20025;-77
2024/01/30 12:30:44;;;;;;;0.10;0.10;;;11.40;99.90;;;;;;5006786;28;20387;-77
2024/01/30 12:33:17;;;;;;;0.10;0.10;;;11.40;99.90;;;;;;5019799;28;20038;-76
2024/01/30 12:35:47;;;;;;;0.00;0.00;;;11.20;99.90;;;;;;5011386;28;20030;-77
2024/01/30 12:38:13;;;;;;;0.85;0.65;;;11.10;99.90;;;;;;5000863;28;20053;-77
2024/01/30 12:40:39;;;;;;;0.28;0.28;;;11.10;99.90;;;;;;5009197;28;20382;-76
2024/01/30 12:43:05;;;;;;;0.10;0.10;;;11.20;99.90;;;;;;5013146;28;20113;-77